createdAt,value
2019-05-06T06:28:34.125Z,9.1
2019-05-06T06:33:36.625Z,12.1
2019-05-06T06:38:39.330Z,14.1
2019-05-06T06:43:42.090Z,15.4
2019-05-06T06:48:43.909Z,15.2
2019-05-06T06:53:46.385Z,14.3
2019-05-06T06:58:48.895Z,13.6
2019-05-06T07:03:52.774Z,13
2019-05-06T07:08:54.053Z,12.7
2019-05-06T07:13:56.311Z,13.3
2019-05-06T07:18:58.642Z,13.8
2019-05-06T07:24:02.139Z,14.3
2019-05-06T07:29:13.120Z,18
2019-05-06T07:34:06.020Z,22.3
2019-05-06T07:39:08.833Z,22.3
2019-05-06T07:44:12.946Z,20.6
2019-05-06T07:49:13.478Z,21.5
2019-05-06T07:54:16.641Z,25.5
2019-05-06T07:59:18.323Z,25.9
2019-05-06T08:04:22.914Z,23.7
2019-05-06T08:09:23.296Z,24.8
2019-05-06T08:14:25.793Z,28.4
2019-05-06T08:19:28.143Z,31.5
2019-05-06T08:24:30.604Z,30.6
2019-05-06T08:29:33.227Z,30.7
2019-05-06T08:34:35.630Z,28.9
2019-05-06T08:39:38.109Z,27
2019-05-06T08:44:42.679Z,26.8
2019-05-06T08:49:42.909Z,27.4
2019-05-06T08:54:45.396Z,26.3
2019-05-06T08:59:47.816Z,26.5
2019-05-06T09:04:51.774Z,25.9
2019-05-06T09:09:52.812Z,25
2019-05-06T09:14:55.172Z,24
2019-05-06T09:19:57.984Z,23.3
2019-05-06T09:25:02.260Z,22.9
2019-05-06T09:30:03.066Z,21.3
2019-05-06T09:35:05.173Z,19.1
2019-05-06T09:40:07.555Z,17.2
2019-05-06T09:45:12.354Z,15.9
2019-05-06T09:50:12.781Z,15.1
2019-05-06T09:55:14.946Z,15.2
2019-05-06T10:00:17.476Z,15.8
2019-05-06T10:05:19.762Z,16
2019-05-06T10:10:22.440Z,15.3
2019-05-06T10:15:24.755Z,14.4
2019-05-06T10:20:27.214Z,13.7
2019-05-06T10:25:30.081Z,13.2
2019-05-06T10:30:33.112Z,12.9
2019-05-06T10:35:34.516Z,12.7
2019-05-06T10:40:44.073Z,12.5
2019-05-06T10:45:39.423Z,12.2
2019-05-06T10:50:42.308Z,11.9
2019-05-06T10:55:44.581Z,11.6
2019-05-06T11:00:46.809Z,11.6
2019-05-06T11:05:49.274Z,12.2
2019-05-06T11:10:53.381Z,13.6
2019-05-06T11:15:55.494Z,16.6
2019-05-06T11:20:56.687Z,17.6
2019-05-06T11:25:59.514Z,18.3
2019-05-06T11:31:02.409Z,21.1
2019-05-06T11:36:04.027Z,23.9
2019-05-06T11:41:06.870Z,25.9
2019-05-06T11:46:09.237Z,25.2
2019-05-06T11:51:12.743Z,23
2019-05-06T11:56:14.667Z,20.4
2019-05-06T12:01:16.762Z,18.3
2019-05-06T12:06:18.866Z,16.9
2019-05-06T12:11:23.273Z,16.1
2019-05-06T12:16:25.905Z,15.6
2019-05-06T12:21:26.151Z,15.4
2019-05-06T12:26:32.006Z,15.2
2019-05-06T12:31:32.750Z,15
2019-05-06T12:36:33.539Z,15.3
2019-05-06T12:41:36.285Z,16.7
2019-05-06T12:46:38.537Z,19
2019-05-06T12:51:43.211Z,20
2019-05-06T12:56:45.782Z,19.5
2019-05-06T13:01:46.062Z,18.7
2019-05-06T13:06:48.258Z,18.1
2019-05-06T13:11:52.333Z,17.2
2019-05-06T13:16:53.434Z,16.4
2019-05-06T13:21:55.662Z,15.6
2019-05-06T13:26:58.984Z,14.8
2019-05-06T13:32:02.004Z,14.8
2019-05-06T13:37:03.057Z,15
2019-05-06T13:42:05.532Z,14.9
2019-05-06T13:47:08.092Z,14.7
2019-05-06T13:52:12.592Z,14.8
2019-05-06T13:57:12.832Z,15.2
2019-05-06T14:02:16.227Z,15.5
2019-05-06T14:07:17.831Z,15.4
2019-05-06T14:12:22.018Z,14.8
2019-05-06T14:17:22.808Z,14.1
2019-05-06T14:22:25.260Z,13.4
2019-05-06T14:27:27.596Z,12.6
2019-05-06T14:32:32.341Z,12.1
2019-05-06T14:37:32.989Z,11.9
2019-05-06T14:42:35.192Z,11.8
2019-05-06T14:47:37.441Z,11.8
2019-05-06T14:52:42.370Z,11.8
2019-05-06T14:57:42.884Z,12
2019-05-06T15:02:44.807Z,12.4
2019-05-06T15:07:47.268Z,13.1
2019-05-06T15:12:49.729Z,13.6
2019-05-06T15:17:53.214Z,13.5
2019-05-06T15:22:54.780Z,13.1
2019-05-06T15:27:57.218Z,12.9
2019-05-06T15:38:02.298Z,12.8
2019-05-06T15:43:04.469Z,12.4
2019-05-06T15:48:07.110Z,11.8
2019-05-06T15:53:09.405Z,11.4
2019-05-06T15:58:12.406Z,11.3
2019-05-06T16:03:14.259Z,11.3
2019-05-06T16:08:16.839Z,11.4
2019-05-06T16:13:19.297Z,11.5
2019-05-06T16:18:23.358Z,11.6
2019-05-06T16:23:24.268Z,11.6
2019-05-06T16:28:26.568Z,11.4
2019-05-06T16:33:29.103Z,11.4
2019-05-06T16:38:32.278Z,11.4
2019-05-06T16:43:34.350Z,11.4
2019-05-06T16:48:36.664Z,11.3
2019-05-06T16:53:39.063Z,11.1
2019-05-06T16:58:43.983Z,10.8
2019-05-06T17:03:43.789Z,10.5
2019-05-06T17:08:46.640Z,10.3
2019-05-06T17:13:48.747Z,10.3
2019-05-06T17:23:53.581Z,9.9
2019-05-06T17:28:56.042Z,9.6
2019-05-06T17:33:58.547Z,9.3
2019-05-06T17:39:02.650Z,9
2019-05-06T17:44:03.429Z,8.8
2019-05-06T17:49:05.873Z,8.5
2019-05-06T17:54:08.467Z,8.4
2019-05-06T17:59:10.764Z,8.2
2019-05-06T18:04:13.289Z,7.9
2019-05-06T18:09:15.694Z,7.7
2019-05-06T18:14:18.143Z,7.6
2019-05-06T18:19:22.243Z,7.6
2019-05-06T18:24:23.229Z,7.5
2019-05-06T18:29:25.672Z,7.5
2019-05-06T18:34:28.053Z,7.4
2019-05-06T18:49:35.351Z,6.6
2019-05-06T18:54:38.054Z,6.3
2019-05-06T18:59:41.920Z,5.9
2019-05-06T19:04:42.796Z,5.5
2019-05-06T19:09:45.248Z,5.1
2019-05-06T19:14:47.685Z,4.9
2019-05-06T19:19:51.998Z,4.7
2019-05-06T19:24:52.615Z,4.6
2019-05-06T19:29:55.074Z,4.5
2019-05-06T19:34:57.475Z,4.4
2019-05-06T19:39:59.972Z,4.3
2019-05-06T19:45:02.724Z,4.2
2019-05-06T19:50:05.207Z,4.2
2019-05-06T19:55:07.710Z,4.2
2019-05-06T20:00:09.852Z,4.3
2019-05-06T20:05:12.230Z,4.4
2019-05-06T20:10:14.922Z,4.4
2019-05-06T20:15:17.289Z,4.6
2019-05-06T20:20:19.644Z,4.6
2019-05-06T20:25:22.175Z,4.5
2019-05-06T20:30:24.541Z,4.5
2019-05-06T20:35:27.055Z,4.4
2019-05-06T20:40:32.430Z,4.4
2019-05-06T20:45:34.710Z,4.3
2019-05-06T20:50:34.390Z,4.1
2019-05-06T21:00:39.697Z,3.6
2019-05-06T21:05:43.398Z,3.4
2019-05-06T21:10:44.351Z,3.2
2019-05-06T21:15:46.748Z,3
2019-05-06T21:20:49.559Z,2.9
2019-05-06T21:25:52.401Z,2.8
2019-05-06T21:30:54.205Z,2.7
2019-05-06T21:35:56.604Z,2.5
2019-05-06T21:46:02.391Z,2.4
2019-05-06T21:51:04.360Z,2.3
2019-05-06T21:56:07.220Z,2.2
2019-05-06T22:01:08.932Z,2
2019-05-06T22:06:12.939Z,1.9
2019-05-06T22:11:14.952Z,1.8
2019-05-06T22:16:16.281Z,1.7
2019-05-06T22:21:19.119Z,1.6
2019-05-06T22:31:24.248Z,1.5
2019-05-06T22:36:26.199Z,1.4
2019-05-06T22:41:28.609Z,1.3
2019-05-06T22:46:32.903Z,1.2
2019-05-06T22:51:33.960Z,1.1
2019-05-06T22:56:36.173Z,1
2019-05-06T23:01:38.477Z,0.9
2019-05-06T23:06:40.910Z,0.9
2019-05-06T23:11:43.361Z,0.9
2019-05-06T23:16:45.866Z,0.9
2019-05-06T23:21:48.292Z,0.8
2019-05-06T23:26:52.682Z,0.8
2019-05-06T23:31:53.174Z,0.7
2019-05-06T23:36:55.647Z,0.6
2019-05-06T23:41:58.119Z,0.6
2019-05-06T23:47:02.086Z,0.5
2019-05-06T23:52:03.378Z,0.4
2019-05-06T23:57:05.481Z,0.3
